CheckWX is a tool to help pilots better visualize weather data.  It is not intended as a substitute for an official pre-flight weather briefing.

22:59:47 UTC

KEVV TAF
Evansville Regional Airport
Evansville, Indiana, USA
KEVV 191724Z 1918/2018 22011G17KT P6SM SCT035 FM200100 22003KT P6SM SKC FM201400 22007KT P6SM SCT035

Jul-19@
18:00 UTC

Jul-19 @ 18:00 UTC

Jul-20@
01:00 UTC

Jul-20 @ 01:00 UTC

KEVV 191724Z 1918/2018 22011G17KT P6SM SCT035
Wind
  • 220° at 11 KTS
  • {Gusting to 17 KTS
Cloud Levels
  • Scattered at 3,500' AGL

Jul-20@
01:00 UTC

Jul-20 @ 01:00 UTC

Jul-20@
14:00 UTC

Jul-20 @ 14:00 UTC

FM200100 22003KT P6SM SKC

From

From Standard forecast or significant change

Wind
  • 220° at 3 KTS
Cloud Levels
  • Clear skies

Jul-20@
14:00 UTC

Jul-20 @ 14:00 UTC

Jul-20@
18:00 UTC

Jul-20 @ 18:00 UTC

FM201400 22007KT P6SM SCT035

From

From Standard forecast or significant change

Wind
  • 220° at 7 KTS
Cloud Levels
  • Scattered at 3,500' AGL